Flight Track Log - Related Links

Times and Time Zones

All times are in EDT time to prevent confusion due to time zone crossing. See the TRS587 flight status page for this flight to view local times or setup timezone preferences in your user account.

Time Position Orientation Groundspeed Altitude Reporting Facility
EDT Latitude Longitude Course Direction KTS MPH feet Rate Location/Type
Sat 10:34:26 AM 28.4000 -81.3000 204° Southwest 188 216 600  Level Orlando TRACON
Sat 10:35:09 AM 28.3667 -81.3167 204° Southwest 205 236 1,800 1,608 Climbing Orlando TRACON
Sat 10:36:03 AM 28.3167 -81.3500 210° Southwest 259 298 3,200 1,800 Climbing Orlando TRACON
Sat 10:37:09 AM 28.3000 -81.4333 257° West 281 323 5,400 2,165 Climbing Orlando TRACON
Sat 10:38:41 AM 28.3142 -81.5606 277° West 286 329 8,900 1,934 Climbing Jacksonville Center
Sat 10:39:41 AM 28.3297 -81.6497 281° West 286 329 10,300 1,400 Climbing Jacksonville Center
Sat 10:40:41 AM 28.3494 -81.7511 282° West 304 350 11,700 1,600 Climbing Jacksonville Center
Sat 10:41:41 AM 28.3669 -81.8500 281° West 320 368 13,500 1,800 Climbing Jacksonville Center
Sat 10:42:41 AM 28.3886 -81.9558 283° West 334 384 15,300 1,700 Climbing Jacksonville Center
Sat 10:43:41 AM 28.4103 -82.0594 283° West 339 390 16,900 1,450 Climbing Jacksonville Center
Sat 10:44:41 AM 28.4297 -82.1703 281° West 344 396 18,200 1,400 Climbing Jacksonville Center
Sat 10:45:41 AM 28.4531 -82.2786 284° West 355 409 19,700 1,350 Climbing Jacksonville Center
Sat 10:46:41 AM 28.4725 -82.3942 281° West 355 409 20,900 1,250 Climbing Jacksonville Center
Sat 10:47:41 AM 28.5042 -82.5050 288° West 365 420 22,200 1,300 Climbing Jacksonville Center
Sat 10:48:41 AM 28.5961 -82.5639 331° Northwest 347 399 23,500 1,250 Climbing Jacksonville Center
Sat 10:49:41 AM 28.6922 -82.6108 337° Northwest 364 419 24,700 1,150 Climbing Jacksonville Center
Sat 10:50:41 AM 28.7944 -82.6581 338° Northwest 369 425 25,800 950 Climbing Jacksonville Center
Sat 10:51:41 AM 28.8989 -82.7100 336° Northwest 384 442 26,600 900 Climbing Jacksonville Center
Sat 10:52:41 AM 29.0056 -82.7619 337° Northwest 402 463 27,600 900 Climbing Jacksonville Center
Sat 10:53:41 AM 29.1100 -82.8117 337° Northwest 402 463 28,400 800 Climbing Jacksonville Center
Sat 10:54:41 AM 29.2186 -82.8639 337° Northwest 407 468 29,200 850 Climbing Jacksonville Center
Sat 10:55:41 AM 29.3250 -82.9164 337° Northwest 412 474 30,100 750 Climbing Jacksonville Center
Sat 10:56:41 AM 29.4336 -82.9689 337° Northwest 412 474 30,700 750 Climbing Jacksonville Center
Sat 10:57:41 AM 29.5358 -83.0214 336° Northwest 421 484 31,600 650 Climbing Jacksonville Center
Sat 10:58:41 AM 29.6422 -83.0717 338° Northwest 426 490 32,000 200 Climbing Jacksonville Center
Sat 10:59:41 AM 29.7547 -83.1247 338° Northwest 426 490 32,000  Level Jacksonville Center
Sat 11:00:41 AM 29.8653 -83.1753 338° Northwest 426 490 32,000  Level Jacksonville Center
Sat 11:01:41 AM 29.9758 -83.2258 338° Northwest 426 490 32,000  Level Jacksonville Center
Sat 11:02:41 AM 30.0886 -83.2767 339° North 431 496 32,000  Level Jacksonville Center
Sat 11:03:41 AM 30.1969 -83.3275 338° Northwest 431 496 32,000  Level Jacksonville Center
Sat 11:04:41 AM 30.3072 -83.3811 337° Northwest 431 496 32,000  Level Jacksonville Center
Sat 11:05:41 AM 30.4178 -83.4322 338° Northwest 431 496 32,000  Level Jacksonville Center
Sat 11:06:41 AM 30.5303 -83.4833 339° North 431 496 32,000  Level Jacksonville Center
Sat 11:07:41 AM 30.6408 -83.5347 338° Northwest 431 496 32,000  Level Jacksonville Center
Sat 11:08:41 AM 30.7572 -83.5911 337° Northwest 424 488 32,000  Level Jacksonville Center
Sat 11:09:41 AM 30.8656 -83.6453 337° Northwest 424 488 32,000  Level Jacksonville Center
Sat 11:10:41 AM 30.9739 -83.6969 338° Northwest 419 482 32,000  Level Jacksonville Center
Sat 11:11:41 AM 31.0842 -83.7489 338° Northwest 414 476 32,000  Level Jacksonville Center
Sat 11:13:45 AM 31.3083 -83.8592 337° Northwest 433 498 32,000  Level Atlanta Center
Sat 11:14:45 AM 31.4167 -83.9100 338° Northwest 433 498 32,000  Level Atlanta Center
Sat 11:15:45 AM 31.5275 -83.9633 338° Northwest 428 493 32,000  Level Atlanta Center
Sat 11:16:45 AM 31.6464 -83.9900 349° North 428 493 32,000  Level Atlanta Center
Sat 11:17:45 AM 31.7633 -84.0144 350° North 428 493 32,000  Level Atlanta Center
Sat 11:18:45 AM 31.8822 -84.0389 350° North 428 493 32,000  Level Atlanta Center
Sat 11:19:45 AM 31.9867 -84.0633 349° North 428 493 32,000  Level Atlanta Center
Sat 11:20:45 AM 32.1056 -84.0878 350° North 428 493 32,000  Level Atlanta Center
Sat 11:21:45 AM 32.2244 -84.1150 349° North 428 493 32,000  Level Atlanta Center
Sat 11:22:45 AM 32.3414 -84.1422 349° North 428 493 32,000  Level Atlanta Center
Sat 11:23:45 AM 32.4603 -84.1717 348° North 428 493 32,000  Level Atlanta Center
Sat 11:24:45 AM 32.5772 -84.1967 350° North 428 493 32,000  Level Atlanta Center
Sat 11:25:45 AM 32.6942 -84.2239 349° North 428 493 32,000  Level Atlanta Center
Sat 11:26:45 AM 32.8233 -84.2514 350° North 428 493 32,000  Level Atlanta Center
Sat 11:27:45 AM 32.9425 -84.2789 349° North 428 493 32,000  Level Atlanta Center
Sat 11:28:45 AM 33.0467 -84.3039 349° North 428 493 32,000  Level Atlanta Center
Sat 11:29:45 AM 33.1594 -84.3292 349° North 423 487 32,000  Level Atlanta Center
Sat 11:30:45 AM 33.2761 -84.3569 349° North 423 487 32,000  Level Atlanta Center
Sat 11:31:45 AM 33.3889 -84.3822 349° North 417 480 32,000  Level Atlanta Center
Sat 11:32:45 AM 33.5036 -84.4100 349° North 417 480 32,000  Level Atlanta Center
Sat 11:33:45 AM 33.6161 -84.4378 348° North 419 482 32,000  Level Atlanta Center
Sat 11:34:45 AM 33.7350 -84.4633 350° North 419 482 32,000  Level Atlanta Center
Sat 11:35:45 AM 33.8561 -84.4917 349° North 414 476 32,000  Level Atlanta Center
Sat 11:36:45 AM 33.9686 -84.5172 349° North 414 476 32,000  Level Atlanta Center
Sat 11:37:45 AM 34.0917 -84.5506 347° North 414 476 32,000  Level Atlanta Center
Sat 11:38:45 AM 34.2000 -84.5739 350° North 427 491 32,000  Level Atlanta Center
Sat 11:39:45 AM 34.3147 -84.6022 348° North 427 491 32,000  Level Atlanta Center
Sat 11:40:45 AM 34.4314 -84.6306 349° North 427 491 32,000  Level Atlanta Center
Sat 11:41:45 AM 34.5442 -84.6567 349° North 422 486 32,000  Level Atlanta Center
Sat 11:42:45 AM 34.6669 -84.6903 347° North 417 480 32,000  Level Atlanta Center
Sat 11:43:45 AM 34.7817 -84.7192 348° North 409 471 32,000  Level Atlanta Center
Sat 11:44:45 AM 34.8964 -84.7478 348° North 409 471 32,000  Level Atlanta Center
Sat 11:45:45 AM 35.0089 -84.7767 348° North 414 476 32,000  Level Atlanta Center
Sat 11:46:45 AM 35.1256 -84.8056 349° North 414 476 32,000  Level Atlanta Center
Sat 11:47:45 AM 35.2381 -84.8347 348° North 414 476 32,000  Level Atlanta Center
Sat 11:48:45 AM 35.3297 -84.8586 348° North 414 476 32,000  Level Atlanta Center
Sat 11:49:45 AM 35.4650 -84.8903 349° North 414 476 32,000  Level Atlanta Center
Sat 11:50:45 AM 35.5775 -84.9197 348° North 414 476 32,000  Level Atlanta Center
Sat 11:51:45 AM 35.6919 -84.9492 348° North 408 470 32,000  Level Atlanta Center
Sat 11:52:45 AM 35.7794 -84.9731 348° North 413 475 32,000  Level Atlanta Center
Sat 11:53:45 AM 35.9106 -85.0078 348° North 420 483 32,000  Level Atlanta Center
Sat 11:55:14 AM 36.0883 -85.0469 350° North 413 475 32,000  Level Indianapolis Center
Sat 11:56:15 AM 36.1994 -85.0761 348° North 409 471 32,000  Level Indianapolis Center
Sat 11:57:17 AM 36.3108 -85.1042 349° North 406 467 32,000  Level Indianapolis Center
Sat 11:58:19 AM 36.4211 -85.1325 348° North 405 466 32,000  Level Indianapolis Center
Sat 11:59:20 AM 36.5300 -85.1608 348° North 401 461 32,000  Level Indianapolis Center
Sat 12:00:22 PM 36.6406 -85.1886 349° North 402 463 32,000  Level Indianapolis Center
Sat 12:01:23 PM 36.7469 -85.2289 343° North 405 466 32,000  Level Indianapolis Center
Sat 12:02:25 PM 36.8508 -85.2814 338° Northwest 404 465 32,000  Level Indianapolis Center
Sat 12:03:26 PM 36.9772 -85.3453 338° Northwest 409 471 32,000  Level Indianapolis Center
Sat 12:04:28 PM 37.0850 -85.3803 345° North 413 475 32,000  Level Indianapolis Center
Sat 12:05:29 PM 37.1961 -85.4028 351° North 409 471 32,000  Level Indianapolis Center
Sat 12:06:31 PM 37.3094 -85.4253 351° North 409 471 32,000  Level Indianapolis Center
Sat 12:07:32 PM 37.4225 -85.4481 351° North 410 472 32,000  Level Indianapolis Center
Sat 12:08:34 PM 37.5361 -85.4692 352° North 412 474 32,000  Level Indianapolis Center
Sat 12:09:36 PM 37.6475 -85.4914 351° North 405 466 32,000  Level Indianapolis Center
Sat 12:11:00 PM 37.7971 -85.5169 352° North  Level FlightAware Approximate
Sat 12:11:39 PM 37.8814 -85.5342 352° North 416 479 32,000  Level Indianapolis Center
Sat 12:12:40 PM 37.9950 -85.5558 351° North 413 475 32,000  Level Indianapolis Center
Sat 12:13:42 PM 38.1317 -85.5825 351° North 413 475 32,000  Level Indianapolis Center
Sat 12:14:43 PM 38.2456 -85.6031 352° North 413 475 32,000  Level Indianapolis Center
Sat 12:15:45 PM 38.3575 -85.6256 351° North 409 471 32,000  Level Indianapolis Center
Sat 12:16:46 PM 38.4703 -85.6483 351° North 409 471 32,000  Level Indianapolis Center
Sat 12:17:48 PM 38.5825 -85.6703 351° North 408 470 32,000 -146 Level Indianapolis Center
Sat 12:18:49 PM 38.7058 -85.6939 352° North 407 468 31,700 -634 Descending Indianapolis Center
Sat 12:19:51 PM 38.8169 -85.7158 351° North 406 467 30,700 -829 Descending Indianapolis Center
Sat 12:20:52 PM 38.9300 -85.7375 352° North 410 472 30,000 -341 Descending Indianapolis Center
Sat 12:21:54 PM 39.0419 -85.7594 351° North 409 471 30,000  Level Indianapolis Center
Sat 12:22:55 PM 39.1539 -85.7811 351° North 408 470 30,000  Level Indianapolis Center
Sat 12:23:57 PM 39.2661 -85.8033 351° North 409 471 30,000  Level Indianapolis Center
Sat 12:24:58 PM 39.3769 -85.8253 351° North 407 468 30,000 -488 Level Indianapolis Center
Sat 12:26:00 PM 39.5100 -85.8517 351° North 407 468 29,000 -1,073 Descending Indianapolis Center
Sat 12:27:01 PM 39.6175 -85.8731 351° North 399 459 27,800 -1,180 Descending Indianapolis Center
Sat 12:28:02 PM 39.7244 -85.8942 351° North 394 453 26,600 -1,171 Descending Indianapolis Center
Sat 12:29:04 PM 39.8311 -85.9156 351° North 393 452 25,400 -1,171 Descending Indianapolis Center
Sat 12:30:05 PM 39.9358 -85.9369 351° North 389 448 24,200 -683 Descending Indianapolis Center
Sat 12:31:07 PM 40.0353 -85.9650 348° North 377 434 24,000 -98 Descending Indianapolis Center
Sat 12:32:08 PM 40.1522 -86.0200 340° North 376 433 24,000 -146 Level Indianapolis Center
Sat 12:33:10 PM 40.2500 -86.0642 341° North 375 432 23,700 -537 Descending Indianapolis Center
Sat 12:34:11 PM 40.3461 -86.1092 340° North 372 428 22,900 -732 Descending Indianapolis Center
Sat 12:35:13 PM 40.4411 -86.1525 341° North 366 421 22,200 -714 Descending Indianapolis Center
Sat 12:36:17 PM 40.5358 -86.1947 341° North 362 417 21,400 -1,048 Descending Chicago Center
Sat 12:37:19 PM 40.6475 -86.2461 341° North 358 412 20,000 -1,548 Descending Chicago Center
Sat 12:38:21 PM 40.7278 -86.2839 340° North 352 405 18,200 -1,403 Descending Chicago Center
Sat 12:39:23 PM 40.8083 -86.3464 330° Northwest 338 389 17,100 -1,016 Descending Chicago Center
Sat 12:40:25 PM 40.9031 -86.4264 327° Northwest 337 388 16,100 -774 Descending Chicago Center
Sat 12:41:27 PM 40.9831 -86.4950 327° Northwest 340 391 15,500 -677 Descending Chicago Center
Sat 12:42:29 PM 41.0606 -86.5633 326° Northwest 336 387 14,700 -726 Descending Chicago Center
Sat 12:43:31 PM 41.1358 -86.6325 325° Northwest 331 381 14,000 -726 Descending Chicago Center
Sat 12:44:33 PM 41.1975 -86.7178 314° West 323 372 13,200 -968 Descending Chicago Center
Sat 12:45:35 PM 41.2694 -86.8183 314° West 318 366 12,000 -1,024 Descending Chicago Center
Sat 12:46:36 PM 41.3275 -86.8972 314° West 307 353 11,100 -927 Descending Chicago Center
Sat 12:47:38 PM 41.3822 -86.9742 313° West 296 341 10,100 -1,258 Descending Chicago Center
Sat 12:48:40 PM 41.4358 -87.0478 314° West 282 325 8,500 -1,645 Descending Chicago Center
Sat 12:49:42 PM 41.4883 -87.1214 314° West 278 320 6,700 -1,403 Descending Chicago Center
Sat 12:50:44 PM 41.5364 -87.2225 302° West 271 312 5,600 -1,306 Descending Chicago Center
Sat 12:51:46 PM 41.5767 -87.3072 302° West 272 313 4,000 -919 Descending Chicago Center
Sat 12:52:48 PM 41.6161 -87.3908 302° West 269 310 3,700 -484 Descending Chicago Center
Sat 12:53:50 PM 41.6561 -87.4747 303° West 270 311 3,000 -484 Descending Chicago Center
Sat 12:54:52 PM 41.6950 -87.5600 301° West 270 311 2,700 -434 Descending Chicago Center
Sat 12:56:36 PM 41.7667 -87.6833 308° West 192 221 1,800 -585 Descending Chicago TRACON
Sat 12:57:36 PM 41.8000 -87.7167 323° Northwest 160 184 1,100 -700 Descending Chicago TRACON
Sat 12:59:00 PM 41.7833 -87.7500 14° North  Level FlightAware Approximate
Sat 01:06:00 PM 41.7860 -87.7524 14° North  Level Estimated

Login

Don't have an account? Register now (free) for customized features, flight alerts, and more!